createdAt,value
2023-05-06T00:01:05.195Z,8.66
2023-05-06T00:03:34.528Z,8.56
2023-05-06T00:06:07.018Z,8.40
2023-05-06T00:08:36.738Z,7.81
2023-05-06T00:11:04.988Z,8.33
2023-05-06T00:13:33.179Z,8.32
2023-05-06T00:16:01.409Z,8.11
2023-05-06T00:18:29.665Z,8.07
2023-05-06T00:20:59.899Z,8.26
2023-05-06T00:23:28.265Z,8.32
2023-05-06T00:25:57.780Z,8.29
2023-05-06T00:28:25.933Z,8.32
2023-05-06T00:30:54.118Z,8.09
2023-05-06T00:33:22.351Z,8.29
2023-05-06T00:35:56.559Z,8.29
2023-05-06T00:38:29.988Z,8.26
2023-05-06T00:40:59.545Z,8.07
2023-05-06T00:43:33.814Z,8.25
2023-05-06T00:46:02.436Z,8.24
2023-05-06T00:48:30.993Z,8.18
2023-05-06T00:50:59.504Z,8.10
2023-05-06T00:53:27.814Z,8.06
2023-05-06T00:55:57.035Z,7.41
2023-05-06T00:58:26.815Z,8.02
2023-05-06T01:00:56.344Z,7.85
2023-05-06T01:03:26.989Z,7.93
2023-05-06T01:06:09.937Z,7.95
2023-05-06T01:08:48.105Z,7.56
2023-05-06T01:11:25.597Z,7.95
2023-05-06T01:14:03.772Z,7.86
2023-05-06T01:16:34.978Z,8.00
2023-05-06T01:19:10.108Z,7.96
2023-05-06T01:21:47.204Z,7.82
2023-05-06T01:24:16.793Z,7.76
2023-05-06T01:26:45.149Z,7.71
2023-05-06T01:29:16.105Z,7.70
2023-05-06T01:31:49.336Z,7.54
2023-05-06T01:34:27.558Z,7.60
2023-05-06T01:37:07.973Z,7.73
2023-05-06T01:39:39.502Z,7.74
2023-05-06T01:42:11.609Z,7.54
2023-05-06T01:44:41.089Z,7.50
2023-05-06T01:47:11.389Z,7.59
2023-05-06T01:49:40.995Z,7.53
2023-05-06T01:52:09.799Z,7.59
2023-05-06T01:54:39.443Z,7.58
2023-05-06T01:57:07.690Z,7.20
2023-05-06T01:59:36.074Z,7.61
2023-05-06T02:02:04.281Z,7.60
2023-05-06T02:04:33.055Z,7.53
2023-05-06T02:07:01.541Z,7.55
2023-05-06T02:09:29.777Z,7.53
2023-05-06T02:12:03.911Z,7.40
2023-05-06T02:14:32.422Z,7.46
2023-05-06T02:17:06.897Z,7.36
2023-05-06T02:19:40.957Z,7.45
2023-05-06T02:22:11.300Z,7.43
2023-05-06T02:24:39.604Z,7.41
2023-05-06T02:27:09.483Z,7.33
2023-05-06T02:29:37.573Z,7.03
2023-05-06T02:32:06.298Z,7.21
2023-05-06T02:34:34.663Z,7.35
2023-05-06T02:37:03.263Z,7.29
2023-05-06T02:39:31.504Z,7.27
2023-05-06T02:41:59.708Z,7.19
2023-05-06T02:44:32.392Z,7.31
2023-05-06T02:47:02.768Z,7.27
2023-05-06T02:49:30.914Z,7.26
2023-05-06T02:51:59.106Z,7.26
2023-05-06T02:54:27.402Z,7.32
2023-05-06T02:56:55.957Z,7.35
2023-05-06T02:59:24.512Z,6.88
2023-05-06T03:01:54.038Z,7.36
2023-05-06T03:04:22.433Z,7.24
2023-05-06T03:06:50.746Z,7.37
2023-05-06T03:09:19.142Z,7.20
2023-05-06T03:11:47.753Z,6.90
2023-05-06T03:14:16.242Z,7.11
2023-05-06T03:16:44.615Z,7.14
2023-05-06T03:19:14.242Z,7.12
2023-05-06T03:21:44.659Z,7.09
2023-05-06T03:24:12.874Z,7.00
2023-05-06T03:26:41.246Z,7.03
2023-05-06T03:29:11.621Z,7.04
2023-05-06T03:31:40.227Z,6.99
2023-05-06T03:34:08.537Z,6.76
2023-05-06T03:36:38.775Z,6.99
2023-05-06T03:39:07.289Z,6.87
2023-05-06T03:41:37.798Z,6.83
2023-05-06T03:44:06.678Z,6.96
2023-05-06T03:46:34.994Z,6.79
2023-05-06T03:49:05.959Z,6.81
2023-05-06T03:51:34.396Z,6.78
2023-05-06T03:54:04.732Z,6.83
2023-05-06T03:56:36.147Z,6.79
2023-05-06T03:59:05.297Z,6.83
2023-05-06T04:01:33.631Z,6.66
2023-05-06T04:04:02.147Z,6.89
2023-05-06T04:06:31.147Z,6.93
2023-05-06T04:08:59.540Z,6.98
2023-05-06T04:11:30.009Z,7.11
2023-05-06T04:13:59.758Z,7.17
2023-05-06T04:16:28.057Z,7.28
2023-05-06T04:19:02.534Z,7.30
2023-05-06T04:21:34.912Z,7.41
2023-05-06T04:24:08.492Z,7.56
2023-05-06T04:26:41.420Z,7.42
2023-05-06T04:29:10.638Z,7.75
2023-05-06T04:31:47.355Z,7.87
2023-05-06T04:34:16.990Z,8.00
2023-05-06T04:36:49.522Z,8.09
2023-05-06T04:39:24.960Z,8.17
2023-05-06T04:41:54.542Z,8.12
2023-05-06T04:44:29.843Z,8.13
2023-05-06T04:46:58.881Z,8.17
2023-05-06T04:49:27.364Z,8.21
2023-05-06T04:51:57.031Z,8.27
2023-05-06T04:54:28.035Z,8.33
2023-05-06T04:56:57.725Z,8.40
2023-05-06T04:59:26.206Z,8.18
2023-05-06T05:01:56.181Z,8.49
2023-05-06T05:04:24.505Z,8.59
2023-05-06T05:06:52.927Z,8.60
2023-05-06T05:09:24.009Z,8.64
2023-05-06T05:11:52.309Z,8.57
2023-05-06T05:14:23.497Z,8.59
2023-05-06T05:16:51.830Z,8.45
2023-05-06T05:19:26.140Z,8.59
2023-05-06T05:21:56.905Z,8.58
2023-05-06T05:24:26.971Z,8.57
2023-05-06T05:26:55.269Z,8.73
2023-05-06T05:29:24.954Z,8.93
2023-05-06T05:31:57.603Z,9.11
2023-05-06T05:34:27.587Z,9.19
2023-05-06T05:36:57.584Z,9.53
2023-05-06T05:39:30.960Z,9.49
2023-05-06T05:41:59.568Z,9.82
2023-05-06T05:44:31.718Z,9.96
2023-05-06T05:47:00.009Z,10.03
2023-05-06T05:49:29.756Z,10.42
2023-05-06T05:51:58.175Z,10.53
2023-05-06T05:54:27.410Z,10.63
2023-05-06T05:56:58.063Z,10.88
2023-05-06T05:59:27.144Z,10.65
2023-05-06T06:02:01.579Z,10.80
2023-05-06T06:04:30.380Z,10.76
2023-05-06T06:07:01.796Z,10.53
2023-05-06T06:09:31.547Z,10.72
2023-05-06T06:12:05.930Z,10.46
2023-05-06T06:14:36.688Z,10.60
2023-05-06T06:17:07.416Z,10.56
2023-05-06T06:19:36.476Z,10.50
2023-05-06T06:22:04.756Z,10.54
2023-05-06T06:24:35.414Z,10.61
2023-05-06T06:27:06.253Z,10.51
2023-05-06T06:29:34.462Z,10.58
2023-05-06T06:32:04.457Z,10.94
2023-05-06T06:34:34.065Z,10.88
2023-05-06T06:37:08.006Z,10.93
2023-05-06T06:39:36.440Z,11.08
2023-05-06T06:42:06.878Z,11.24
2023-05-06T06:44:43.706Z,11.32
2023-05-06T06:47:11.897Z,11.32
2023-05-06T06:49:41.424Z,11.28
2023-05-06T06:52:10.534Z,11.37
2023-05-06T06:54:39.515Z,11.36
2023-05-06T06:57:08.840Z,11.37
2023-05-06T06:59:39.765Z,11.42
2023-05-06T07:02:10.864Z,11.41
2023-05-06T07:04:39.100Z,11.53
2023-05-06T07:07:10.837Z,11.76
2023-05-06T07:09:40.284Z,11.82
2023-05-06T07:12:11.235Z,12.13
2023-05-06T07:14:42.608Z,12.25
2023-05-06T07:17:11.997Z,12.25
2023-05-06T07:19:40.419Z,12.24
2023-05-06T07:22:13.171Z,12.17
2023-05-06T07:24:41.556Z,12.39
2023-05-06T07:27:12.851Z,12.32
2023-05-06T07:29:41.233Z,12.54
2023-05-06T07:32:09.926Z,12.83
2023-05-06T07:34:38.156Z,12.87
2023-05-06T07:37:07.964Z,12.73
2023-05-06T07:39:40.504Z,12.77
2023-05-06T07:42:12.949Z,12.85
2023-05-06T07:44:43.979Z,12.86
2023-05-06T07:47:12.319Z,13.11
2023-05-06T07:49:40.989Z,13.25
2023-05-06T07:52:11.905Z,13.66
2023-05-06T07:54:44.098Z,14.04
2023-05-06T07:57:12.562Z,14.11
2023-05-06T07:59:40.891Z,14.52
2023-05-06T08:02:11.451Z,15.22
2023-05-06T08:04:39.891Z,15.87
2023-05-06T08:07:08.896Z,16.16
2023-05-06T08:09:37.322Z,16.71
2023-05-06T08:12:08.538Z,17.38
2023-05-06T08:14:36.984Z,17.81
2023-05-06T08:17:05.856Z,17.93
2023-05-06T08:19:34.104Z,18.33
2023-05-06T08:22:02.576Z,17.41
2023-05-06T08:24:30.976Z,18.40
2023-05-06T08:26:59.334Z,18.54
2023-05-06T08:29:28.905Z,18.20
2023-05-06T08:31:57.328Z,18.28
2023-05-06T08:34:25.661Z,17.91
2023-05-06T08:36:53.963Z,18.52
2023-05-06T08:39:22.322Z,19.04
2023-05-06T08:41:53.597Z,19.55
2023-05-06T08:44:26.089Z,19.88
2023-05-06T08:46:56.322Z,19.37
2023-05-06T08:49:24.986Z,19.89
2023-05-06T08:51:53.615Z,19.97
2023-05-06T08:54:24.778Z,19.70
2023-05-06T08:56:54.955Z,19.07
2023-05-06T08:59:26.793Z,20.13
2023-05-06T09:01:56.604Z,20.25
2023-05-06T09:04:24.949Z,20.60
2023-05-06T09:06:53.406Z,20.91
2023-05-06T09:09:21.807Z,20.23
2023-05-06T09:11:54.104Z,20.38
2023-05-06T09:14:23.441Z,20.59
2023-05-06T09:16:58.531Z,21.26
2023-05-06T09:19:28.479Z,21.30
2023-05-06T09:21:57.304Z,21.04
2023-05-06T09:24:26.340Z,21.06
2023-05-06T09:26:55.503Z,20.93
2023-05-06T09:29:25.251Z,20.78
2023-05-06T09:31:56.995Z,21.21
2023-05-06T09:34:25.685Z,21.36
2023-05-06T09:36:57.233Z,20.99
2023-05-06T09:39:27.545Z,21.21
2023-05-06T09:41:56.576Z,21.21
2023-05-06T09:44:26.966Z,21.11
2023-05-06T09:47:00.906Z,21.35
2023-05-06T09:49:45.721Z,21.18
2023-05-06T09:52:15.963Z,21.47
2023-05-06T09:54:46.840Z,21.82
2023-05-06T09:57:17.143Z,21.61
2023-05-06T09:59:48.610Z,21.75
2023-05-06T10:02:19.682Z,21.96
2023-05-06T10:04:51.166Z,22.00
2023-05-06T10:07:23.768Z,22.16
2023-05-06T10:09:55.274Z,22.39
2023-05-06T10:12:23.653Z,22.29
2023-05-06T10:14:51.993Z,22.74
2023-05-06T10:17:26.711Z,23.05
2023-05-06T10:19:59.149Z,23.07
2023-05-06T10:22:42.550Z,23.44
2023-05-06T10:25:19.422Z,23.30
2023-05-06T10:27:51.228Z,23.29
2023-05-06T10:30:20.956Z,24.05
2023-05-06T10:32:53.315Z,23.98
2023-05-06T10:35:37.345Z,23.89
2023-05-06T10:38:20.518Z,23.90
2023-05-06T10:40:53.756Z,23.28
2023-05-06T10:43:25.878Z,23.39
2023-05-06T10:46:09.188Z,23.55
2023-05-06T10:48:41.300Z,23.40
2023-05-06T10:51:28.448Z,23.41
2023-05-06T10:54:03.849Z,23.19
2023-05-06T10:56:34.553Z,22.62
2023-05-06T10:59:07.944Z,22.61
2023-05-06T11:01:39.356Z,22.43
2023-05-06T11:04:11.267Z,22.37
2023-05-06T11:06:42.639Z,22.58
2023-05-06T11:09:19.107Z,22.39
2023-05-06T11:12:07.018Z,22.50
2023-05-06T11:14:40.198Z,22.38
2023-05-06T11:17:11.089Z,22.26
2023-05-06T11:19:41.209Z,22.70
2023-05-06T11:22:10.588Z,22.22
2023-05-06T11:24:41.839Z,21.72
2023-05-06T11:27:19.565Z,22.30
2023-05-06T11:29:47.838Z,22.20
2023-05-06T11:32:24.373Z,22.24
2023-05-06T11:34:57.585Z,22.16
2023-05-06T11:37:27.475Z,22.45
2023-05-06T11:39:56.342Z,22.52
2023-05-06T11:42:29.751Z,22.63
2023-05-06T11:45:04.814Z,22.64
2023-05-06T11:47:33.146Z,22.57
2023-05-06T11:50:07.823Z,22.83
2023-05-06T11:52:37.249Z,22.75
2023-05-06T11:55:11.166Z,23.16
2023-05-06T11:57:48.347Z,23.28
2023-05-06T12:00:18.789Z,23.37
2023-05-06T12:02:47.379Z,23.46
2023-05-06T12:05:17.297Z,23.75
2023-05-06T12:07:46.588Z,23.91
2023-05-06T12:10:19.886Z,23.88
2023-05-06T12:12:51.681Z,23.72
2023-05-06T12:15:20.128Z,24.07
2023-05-06T12:17:49.111Z,23.92
2023-05-06T12:20:20.060Z,24.04
2023-05-06T12:23:05.714Z,23.75
2023-05-06T12:25:34.328Z,23.48
2023-05-06T12:28:03.100Z,23.31
2023-05-06T12:30:32.090Z,22.91
2023-05-06T12:33:03.806Z,22.85
2023-05-06T12:35:34.032Z,22.92
2023-05-06T12:38:14.446Z,22.94
2023-05-06T12:40:44.762Z,22.84
2023-05-06T12:43:13.660Z,22.44
2023-05-06T12:45:42.189Z,22.37
2023-05-06T12:48:17.717Z,22.37
2023-05-06T12:50:47.991Z,22.25
2023-05-06T12:53:32.482Z,22.16
2023-05-06T12:56:01.600Z,22.09
2023-05-06T12:58:29.755Z,22.37
2023-05-06T13:00:58.187Z,22.34
2023-05-06T13:03:27.342Z,22.49
2023-05-06T13:05:57.313Z,22.59
2023-05-06T13:08:25.773Z,22.46
2023-05-06T13:10:54.000Z,22.57
2023-05-06T13:13:22.237Z,22.69
2023-05-06T13:15:50.602Z,22.56
2023-05-06T13:18:19.186Z,22.39
2023-05-06T13:20:47.409Z,22.61
2023-05-06T13:23:19.410Z,22.50
2023-05-06T13:26:02.795Z,22.80
2023-05-06T13:28:35.584Z,22.92
2023-05-06T13:31:04.024Z,22.57
2023-05-06T13:33:32.570Z,22.58
2023-05-06T13:36:02.705Z,22.21
2023-05-06T13:38:33.617Z,22.41
2023-05-06T13:41:03.370Z,22.30
2023-05-06T13:43:31.612Z,21.98
2023-05-06T13:45:59.939Z,22.04
2023-05-06T13:48:28.323Z,22.20
2023-05-06T13:50:57.732Z,22.37
2023-05-06T13:53:26.067Z,22.52
2023-05-06T13:55:55.822Z,22.54
2023-05-06T13:58:24.681Z,22.95
2023-05-06T14:00:53.214Z,22.83
2023-05-06T14:03:21.674Z,22.78
2023-05-06T14:05:49.968Z,22.60
2023-05-06T14:08:18.439Z,22.57
2023-05-06T14:10:47.063Z,22.49
2023-05-06T14:13:17.079Z,22.52
2023-05-06T14:15:45.463Z,22.27
2023-05-06T14:18:13.987Z,22.31
2023-05-06T14:20:42.402Z,22.55
2023-05-06T14:23:12.341Z,22.64
2023-05-06T14:25:40.544Z,22.56
2023-05-06T14:28:10.443Z,22.49
2023-05-06T14:30:40.165Z,22.37
2023-05-06T14:33:12.172Z,22.46
2023-05-06T14:35:42.655Z,21.88
2023-05-06T14:38:11.988Z,21.80
2023-05-06T14:40:40.385Z,22.18
2023-05-06T14:43:11.790Z,22.14
2023-05-06T14:45:41.457Z,22.01
2023-05-06T14:48:10.391Z,21.95
2023-05-06T14:50:38.730Z,21.93
2023-05-06T14:53:07.404Z,22.00
2023-05-06T14:55:36.366Z,22.16
2023-05-06T14:58:04.804Z,22.15
2023-05-06T15:00:33.301Z,21.63
2023-05-06T15:03:04.584Z,21.62
2023-05-06T15:05:32.942Z,21.62
2023-05-06T15:08:01.417Z,21.58
2023-05-06T15:10:29.755Z,21.53
2023-05-06T15:12:59.092Z,21.68
2023-05-06T15:15:27.593Z,21.79
2023-05-06T15:17:55.905Z,21.79
2023-05-06T15:20:26.322Z,21.67
2023-05-06T15:22:56.403Z,21.95
2023-05-06T15:25:34.920Z,21.84
2023-05-06T15:28:06.291Z,21.79
2023-05-06T15:30:34.629Z,21.97
2023-05-06T15:33:03.314Z,22.02
2023-05-06T15:35:33.518Z,21.98
2023-05-06T15:38:04.075Z,21.80
2023-05-06T15:40:32.492Z,21.58
2023-05-06T15:43:00.836Z,21.41
2023-05-06T15:45:29.459Z,21.07
2023-05-06T15:47:57.891Z,20.65
2023-05-06T15:53:02.357Z,18.86
2023-05-06T15:55:41.453Z,17.94
2023-05-06T15:58:13.645Z,17.60
2023-05-06T16:00:42.118Z,16.88
2023-05-06T16:03:13.569Z,15.85
2023-05-06T16:05:41.966Z,15.21
2023-05-06T16:08:14.196Z,14.79
2023-05-06T16:10:42.661Z,14.62
2023-05-06T16:13:11.452Z,14.45
2023-05-06T16:15:39.808Z,14.51
2023-05-06T16:18:08.548Z,14.01
2023-05-06T16:20:36.811Z,13.85
2023-05-06T16:23:06.896Z,13.69
2023-05-06T16:25:38.306Z,13.13
2023-05-06T16:28:07.704Z,13.16
2023-05-06T16:30:36.143Z,13.28
2023-05-06T16:33:05.301Z,13.44
2023-05-06T16:35:36.346Z,13.55
2023-05-06T16:38:04.866Z,13.40
2023-05-06T16:40:33.316Z,13.36
2023-05-06T16:43:03.371Z,13.32
2023-05-06T16:45:33.910Z,13.27
2023-05-06T16:48:02.415Z,13.56
2023-05-06T16:50:31.667Z,13.57
2023-05-06T16:52:59.952Z,13.51
2023-05-06T16:55:29.613Z,13.59
2023-05-06T16:58:00.861Z,13.44
2023-05-06T17:00:31.369Z,13.21
2023-05-06T17:02:59.922Z,13.52
2023-05-06T17:05:30.936Z,13.44
2023-05-06T17:07:59.289Z,13.67
2023-05-06T17:10:29.375Z,13.74
2023-05-06T17:12:57.980Z,13.57
2023-05-06T17:15:26.696Z,13.68
2023-05-06T17:17:57.758Z,13.71
2023-05-06T17:20:26.087Z,13.82
2023-05-06T17:22:54.374Z,13.75
2023-05-06T17:25:24.344Z,13.86
2023-05-06T17:27:53.867Z,13.77
2023-05-06T17:30:22.704Z,13.76
2023-05-06T17:32:51.097Z,14.04
2023-05-06T17:35:21.285Z,14.08
2023-05-06T17:37:49.746Z,14.09
2023-05-06T17:40:18.482Z,13.89
2023-05-06T17:42:46.722Z,14.10
2023-05-06T17:45:15.225Z,14.12
2023-05-06T17:47:43.740Z,14.08
2023-05-06T17:50:13.517Z,14.17
2023-05-06T17:52:43.051Z,14.01
2023-05-06T17:55:16.845Z,14.20
2023-05-06T17:57:47.548Z,13.99
2023-05-06T18:00:17.796Z,14.09
2023-05-06T18:02:46.517Z,13.93
2023-05-06T18:05:15.566Z,14.06
2023-05-06T18:07:45.563Z,13.92
2023-05-06T18:10:14.399Z,13.84
2023-05-06T18:12:45.417Z,13.80
2023-05-06T18:15:13.837Z,13.81
2023-05-06T18:17:42.167Z,13.74
2023-05-06T18:20:13.715Z,13.62
2023-05-06T18:22:46.432Z,13.58
2023-05-06T18:25:19.679Z,13.66
2023-05-06T18:27:48.255Z,13.62
2023-05-06T18:30:17.101Z,13.60
2023-05-06T18:32:45.309Z,13.68
2023-05-06T18:35:13.715Z,13.70
2023-05-06T18:37:41.961Z,13.42
2023-05-06T18:40:15.793Z,13.61
2023-05-06T18:42:43.965Z,13.60
2023-05-06T18:45:13.258Z,13.59
2023-05-06T18:47:41.684Z,13.62
2023-05-06T18:50:11.049Z,13.65
2023-05-06T18:52:39.281Z,13.48
2023-05-06T18:55:09.071Z,13.55
2023-05-06T18:57:39.684Z,13.49
2023-05-06T19:00:11.113Z,13.35
2023-05-06T19:02:39.463Z,13.37
2023-05-06T19:05:09.974Z,13.35
2023-05-06T19:07:38.375Z,13.33
2023-05-06T19:10:08.773Z,13.18
2023-05-06T19:12:38.465Z,13.28
2023-05-06T19:15:09.070Z,13.27
2023-05-06T19:17:37.420Z,13.20
2023-05-06T19:20:10.979Z,13.14
2023-05-06T19:22:39.571Z,13.22
2023-05-06T19:25:10.196Z,13.08
2023-05-06T19:27:39.920Z,13.24
2023-05-06T19:30:13.603Z,13.25
2023-05-06T19:32:42.319Z,13.23
2023-05-06T19:35:11.804Z,13.26
2023-05-06T19:37:40.472Z,13.29
2023-05-06T19:40:11.336Z,13.22
2023-05-06T19:42:40.952Z,13.26
2023-05-06T19:45:11.846Z,13.21
2023-05-06T19:47:40.849Z,12.95
2023-05-06T19:50:13.783Z,13.06
2023-05-06T19:52:43.303Z,13.09
2023-05-06T19:55:12.739Z,12.93
2023-05-06T19:57:42.645Z,13.14
2023-05-06T20:00:13.983Z,12.95
2023-05-06T20:02:42.312Z,13.20
2023-05-06T20:05:11.391Z,13.24
2023-05-06T20:07:41.792Z,13.25
2023-05-06T20:10:13.508Z,13.25
2023-05-06T20:12:43.267Z,13.20
2023-05-06T20:15:12.187Z,13.28
2023-05-06T20:17:40.782Z,13.30
2023-05-06T20:20:11.671Z,13.26
2023-05-06T20:22:41.455Z,13.32
2023-05-06T20:25:14.422Z,13.29
2023-05-06T20:27:44.838Z,13.27
2023-05-06T20:30:13.287Z,12.95
2023-05-06T20:32:42.182Z,13.10
2023-05-06T20:35:12.248Z,13.26
2023-05-06T20:37:41.319Z,13.26
2023-05-06T20:40:11.453Z,13.21
2023-05-06T20:42:39.716Z,13.02
2023-05-06T20:45:11.446Z,13.03
2023-05-06T20:47:40.133Z,12.96
2023-05-06T20:50:16.684Z,12.86
2023-05-06T20:52:46.133Z,12.76
2023-05-06T20:55:15.350Z,12.66
2023-05-06T20:57:44.181Z,12.42
2023-05-06T21:00:14.767Z,12.46
2023-05-06T21:02:43.150Z,12.44
2023-05-06T21:05:12.347Z,12.34
2023-05-06T21:07:40.870Z,12.28
2023-05-06T21:10:11.328Z,11.92
2023-05-06T21:12:39.808Z,12.09
2023-05-06T21:15:14.600Z,11.86
2023-05-06T21:17:44.196Z,11.75
2023-05-06T21:20:14.098Z,11.67
2023-05-06T21:22:42.410Z,11.79
2023-05-06T21:25:13.190Z,11.72
2023-05-06T21:27:43.506Z,11.66
2023-05-06T21:30:14.134Z,11.66
2023-05-06T21:32:42.323Z,11.66
2023-05-06T21:35:13.754Z,11.43
2023-05-06T21:37:41.966Z,11.64
2023-05-06T21:40:13.668Z,11.48
2023-05-06T21:42:41.868Z,11.53
2023-05-06T21:45:13.327Z,11.55
2023-05-06T21:47:42.693Z,11.53
2023-05-06T21:50:12.515Z,11.50
2023-05-06T21:52:40.820Z,11.44
2023-05-06T21:55:10.364Z,11.36
2023-05-06T21:57:38.832Z,11.18
2023-05-06T22:00:11.959Z,11.17
2023-05-06T22:02:42.020Z,11.20
2023-05-06T22:05:11.384Z,11.14
2023-05-06T22:07:39.792Z,11.12
2023-05-06T22:10:12.300Z,11.07
2023-05-06T22:12:40.718Z,11.06
2023-05-06T22:15:10.599Z,11.07
2023-05-06T22:17:45.105Z,10.97
2023-05-06T22:20:15.150Z,11.06
2023-05-06T22:22:44.012Z,11.13
2023-05-06T22:25:12.664Z,11.18
2023-05-06T22:27:41.215Z,11.20
2023-05-06T22:30:18.665Z,11.26
2023-05-06T22:32:48.336Z,11.31
2023-05-06T22:35:17.137Z,11.38
2023-05-06T22:37:45.476Z,11.36
2023-05-06T22:40:18.844Z,11.43
2023-05-06T22:42:54.739Z,11.44
2023-05-06T22:45:26.705Z,11.50
2023-05-06T22:47:56.880Z,11.46
2023-05-06T22:50:27.007Z,11.47
2023-05-06T22:52:57.668Z,11.50
2023-05-06T22:55:27.493Z,11.51
2023-05-06T22:57:55.825Z,11.54
2023-05-06T23:00:24.057Z,11.57
2023-05-06T23:02:52.612Z,11.45
2023-05-06T23:05:22.419Z,11.66
2023-05-06T23:07:50.658Z,11.67
2023-05-06T23:10:18.912Z,11.71
2023-05-06T23:12:47.133Z,11.62
2023-05-06T23:15:15.388Z,11.84
2023-05-06T23:17:43.654Z,11.87
2023-05-06T23:20:22.388Z,11.91
2023-05-06T23:22:57.984Z,11.88
2023-05-06T23:25:26.895Z,11.96
2023-05-06T23:28:02.334Z,11.99
2023-05-06T23:30:33.590Z,12.02
2023-05-06T23:33:02.143Z,11.99
2023-05-06T23:35:32.254Z,11.99
2023-05-06T23:38:01.912Z,12.09
2023-05-06T23:40:35.719Z,11.98
2023-05-06T23:43:07.152Z,12.14
2023-05-06T23:45:37.884Z,12.15
2023-05-06T23:48:07.452Z,12.18
2023-05-06T23:50:35.830Z,12.00
2023-05-06T23:53:07.631Z,11.95
2023-05-06T23:55:36.054Z,12.08
2023-05-06T23:58:04.157Z,12.25
